sensor_id;sensor_type;location;lat;lon;timestamp;temperature;humidity
71096;DHT22;58753;49.440;11.126;2023-09-18T00:00:01;16.67;87.84
71096;DHT22;58753;49.440;11.126;2023-09-18T00:02:26;16.64;87.82
71096;DHT22;58753;49.440;11.126;2023-09-18T00:04:53;16.61;87.89
71096;DHT22;58753;49.440;11.126;2023-09-18T00:07:18;16.60;87.99
71096;DHT22;58753;49.440;11.126;2023-09-18T00:09:43;16.57;88.00
71096;DHT22;58753;49.440;11.126;2023-09-18T00:12:16;16.52;87.93
71096;DHT22;58753;49.440;11.126;2023-09-18T00:14:41;16.53;88.02
71096;DHT22;58753;49.440;11.126;2023-09-18T00:17:07;16.50;88.09
71096;DHT22;58753;49.440;11.126;2023-09-18T00:19:35;16.49;88.04
71096;DHT22;58753;49.440;11.126;2023-09-18T00:22:01;16.43;88.05
71096;DHT22;58753;49.440;11.126;2023-09-18T00:24:28;16.43;88.15
71096;DHT22;58753;49.440;11.126;2023-09-18T00:26:54;16.39;88.13
71096;DHT22;58753;49.440;11.126;2023-09-18T00:29:20;16.36;88.16
71096;DHT22;58753;49.440;11.126;2023-09-18T00:31:45;16.34;88.32
71096;DHT22;58753;49.440;11.126;2023-09-18T00:34:13;16.33;88.36
71096;DHT22;58753;49.440;11.126;2023-09-18T00:36:41;16.30;88.32
71096;DHT22;58753;49.440;11.126;2023-09-18T00:39:09;16.26;88.18
71096;DHT22;58753;49.440;11.126;2023-09-18T00:41:36;16.23;88.39
71096;DHT22;58753;49.440;11.126;2023-09-18T00:44:04;16.23;88.46
71096;DHT22;58753;49.440;11.126;2023-09-18T00:46:30;16.22;88.48
71096;DHT22;58753;49.440;11.126;2023-09-18T00:48:56;16.20;88.42
71096;DHT22;58753;49.440;11.126;2023-09-18T00:51:24;16.20;88.53
71096;DHT22;58753;49.440;11.126;2023-09-18T00:53:50;16.19;88.49
71096;DHT22;58753;49.440;11.126;2023-09-18T00:56:18;16.16;88.54
71096;DHT22;58753;49.440;11.126;2023-09-18T00:58:47;16.12;88.34
71096;DHT22;58753;49.440;11.126;2023-09-18T01:01:15;16.10;88.43
71096;DHT22;58753;49.440;11.126;2023-09-18T01:03:50;16.06;88.44
71096;DHT22;58753;49.440;11.126;2023-09-18T01:06:16;16.01;88.63
71096;DHT22;58753;49.440;11.126;2023-09-18T01:08:43;15.99;88.51
71096;DHT22;58753;49.440;11.126;2023-09-18T01:11:26;15.99;88.51
71096;DHT22;58753;49.440;11.126;2023-09-18T01:14:24;15.94;88.77
71096;DHT22;58753;49.440;11.126;2023-09-18T01:16:57;15.91;88.73
71096;DHT22;58753;49.440;11.126;2023-09-18T01:19:39;15.91;88.83
71096;DHT22;58753;49.440;11.126;2023-09-18T01:22:08;15.89;88.81
71096;DHT22;58753;49.440;11.126;2023-09-18T01:24:36;15.85;88.81
71096;DHT22;58753;49.440;11.126;2023-09-18T01:27:02;15.81;88.81
71096;DHT22;58753;49.440;11.126;2023-09-18T01:29:30;15.79;88.89
71096;DHT22;58753;49.440;11.126;2023-09-18T01:31:55;15.75;88.87
71096;DHT22;58753;49.440;11.126;2023-09-18T01:34:35;15.77;89.00
71096;DHT22;58753;49.440;11.126;2023-09-18T01:37:05;15.71;88.89
71096;DHT22;58753;49.440;11.126;2023-09-18T01:39:32;15.68;89.00
71096;DHT22;58753;49.440;11.126;2023-09-18T01:42:03;15.69;89.20
71096;DHT22;58753;49.440;11.126;2023-09-18T01:44:30;15.68;89.06
71096;DHT22;58753;49.440;11.126;2023-09-18T01:46:58;15.65;89.10
71096;DHT22;58753;49.440;11.126;2023-09-18T01:49:33;15.64;89.06
71096;DHT22;58753;49.440;11.126;2023-09-18T01:52:00;15.64;89.19
71096;DHT22;58753;49.440;11.126;2023-09-18T01:54:26;15.59;89.17
71096;DHT22;58753;49.440;11.126;2023-09-18T01:56:52;15.62;89.23
71096;DHT22;58753;49.440;11.126;2023-09-18T01:59:19;15.59;89.14
71096;DHT22;58753;49.440;11.126;2023-09-18T02:01:44;15.57;89.22
71096;DHT22;58753;49.440;11.126;2023-09-18T02:04:09;15.54;89.27
71096;DHT22;58753;49.440;11.126;2023-09-18T02:06:35;15.53;89.17
71096;DHT22;58753;49.440;11.126;2023-09-18T02:09:01;15.50;89.20
71096;DHT22;58753;49.440;11.126;2023-09-18T02:11:27;15.50;89.21
71096;DHT22;58753;49.440;11.126;2023-09-18T02:13:55;15.44;89.24
71096;DHT22;58753;49.440;11.126;2023-09-18T02:16:21;15.43;89.25
71096;DHT22;58753;49.440;11.126;2023-09-18T02:18:49;15.41;89.28
71096;DHT22;58753;49.440;11.126;2023-09-18T02:21:19;15.41;89.12
71096;DHT22;58753;49.440;11.126;2023-09-18T02:23:45;15.38;89.14
71096;DHT22;58753;49.440;11.126;2023-09-18T02:26:10;15.33;89.21
71096;DHT22;58753;49.440;11.126;2023-09-18T02:28:36;15.33;89.29
71096;DHT22;58753;49.440;11.126;2023-09-18T02:31:01;15.30;89.27
71096;DHT22;58753;49.440;11.126;2023-09-18T02:33:28;15.28;89.28
71096;DHT22;58753;49.440;11.126;2023-09-18T02:35:58;15.26;89.14
71096;DHT22;58753;49.440;11.126;2023-09-18T02:38:26;15.26;89.21
71096;DHT22;58753;49.440;11.126;2023-09-18T02:40:51;15.16;89.24
71096;DHT22;58753;49.440;11.126;2023-09-18T02:43:20;15.19;89.31
71096;DHT22;58753;49.440;11.126;2023-09-18T02:45:45;15.16;89.35
71096;DHT22;58753;49.440;11.126;2023-09-18T02:48:13;15.16;89.40
71096;DHT22;58753;49.440;11.126;2023-09-18T02:50:41;15.14;89.33
71096;DHT22;58753;49.440;11.126;2023-09-18T02:53:07;15.10;89.29
71096;DHT22;58753;49.440;11.126;2023-09-18T02:55:34;15.11;89.42
71096;DHT22;58753;49.440;11.126;2023-09-18T02:57:59;15.07;89.34
71096;DHT22;58753;49.440;11.126;2023-09-18T03:00:25;15.07;89.47
71096;DHT22;58753;49.440;11.126;2023-09-18T03:02:52;15.04;89.39
71096;DHT22;58753;49.440;11.126;2023-09-18T03:05:20;15.02;89.47
71096;DHT22;58753;49.440;11.126;2023-09-18T03:07:47;15.06;89.55
71096;DHT22;58753;49.440;11.126;2023-09-18T03:10:13;15.04;89.58
71096;DHT22;58753;49.440;11.126;2023-09-18T03:12:41;15.02;89.55
71096;DHT22;58753;49.440;11.126;2023-09-18T03:15:07;15.02;89.57
71096;DHT22;58753;49.440;11.126;2023-09-18T03:17:32;15.02;89.51
71096;DHT22;58753;49.440;11.126;2023-09-18T03:20:00;14.99;89.55
71096;DHT22;58753;49.440;11.126;2023-09-18T03:22:26;14.96;89.53
71096;DHT22;58753;49.440;11.126;2023-09-18T03:24:51;14.94;89.60
71096;DHT22;58753;49.440;11.126;2023-09-18T03:27:16;14.94;89.59
71096;DHT22;58753;49.440;11.126;2023-09-18T03:29:42;14.96;89.55
71096;DHT22;58753;49.440;11.126;2023-09-18T03:32:10;14.90;89.40
71096;DHT22;58753;49.440;11.126;2023-09-18T03:34:40;14.87;89.42
71096;DHT22;58753;49.440;11.126;2023-09-18T03:37:05;14.86;89.42
71096;DHT22;58753;49.440;11.126;2023-09-18T03:39:31;14.79;89.37
71096;DHT22;58753;49.440;11.126;2023-09-18T03:41:58;14.79;89.45
71096;DHT22;58753;49.440;11.126;2023-09-18T03:44:26;14.77;89.40
71096;DHT22;58753;49.440;11.126;2023-09-18T03:46:52;14.73;89.60
71096;DHT22;58753;49.440;11.126;2023-09-18T03:49:19;14.76;89.66
71096;DHT22;58753;49.440;11.126;2023-09-18T03:51:45;14.76;89.56
71096;DHT22;58753;49.440;11.126;2023-09-18T03:54:10;14.76;89.56
71096;DHT22;58753;49.440;11.126;2023-09-18T03:56:38;14.75;89.56
71096;DHT22;58753;49.440;11.126;2023-09-18T03:59:06;14.75;89.61
71096;DHT22;58753;49.440;11.126;2023-09-18T04:01:34;14.73;89.56
71096;DHT22;58753;49.440;11.126;2023-09-18T04:04:02;14.70;89.48
71096;DHT22;58753;49.440;11.126;2023-09-18T04:06:37;14.66;89.59
71096;DHT22;58753;49.440;11.126;2023-09-18T04:09:05;14.66;89.72
71096;DHT22;58753;49.440;11.126;2023-09-18T04:11:30;14.70;89.74
71096;DHT22;58753;49.440;11.126;2023-09-18T04:13:59;14.73;89.81
71096;DHT22;58753;49.440;11.126;2023-09-18T04:16:25;14.73;89.79
71096;DHT22;58753;49.440;11.126;2023-09-18T04:18:54;14.77;89.94
71096;DHT22;58753;49.440;11.126;2023-09-18T04:21:21;14.77;89.96
71096;DHT22;58753;49.440;11.126;2023-09-18T04:23:47;14.79;89.78
71096;DHT22;58753;49.440;11.126;2023-09-18T04:26:13;14.82;89.85
71096;DHT22;58753;49.440;11.126;2023-09-18T04:28:39;14.89;90.02
71096;DHT22;58753;49.440;11.126;2023-09-18T04:31:07;14.89;89.94
71096;DHT22;58753;49.440;11.126;2023-09-18T04:33:32;14.92;89.87
71096;DHT22;58753;49.440;11.126;2023-09-18T04:35:58;14.92;89.68
71096;DHT22;58753;49.440;11.126;2023-09-18T04:38:26;15.03;90.45
71096;DHT22;58753;49.440;11.126;2023-09-18T04:41:00;15.16;90.49
71096;DHT22;58753;49.440;11.126;2023-09-18T04:43:26;15.23;90.51
71096;DHT22;58753;49.440;11.126;2023-09-18T04:45:51;15.30;90.46
71096;DHT22;58753;49.440;11.126;2023-09-18T04:48:19;15.38;90.49
71096;DHT22;58753;49.440;11.126;2023-09-18T04:50:44;15.44;90.39
71096;DHT22;58753;49.440;11.126;2023-09-18T04:53:10;15.47;90.40
71096;DHT22;58753;49.440;11.126;2023-09-18T04:55:35;15.51;90.41
71096;DHT22;58753;49.440;11.126;2023-09-18T04:58:00;15.53;90.39
71096;DHT22;58753;49.440;11.126;2023-09-18T05:00:30;15.54;90.35
71096;DHT22;58753;49.440;11.126;2023-09-18T05:02:57;15.55;90.35
71096;DHT22;58753;49.440;11.126;2023-09-18T05:05:25;15.58;90.38
71096;DHT22;58753;49.440;11.126;2023-09-18T05:07:53;15.61;90.46
71096;DHT22;58753;49.440;11.126;2023-09-18T05:10:19;15.61;90.37
71096;DHT22;58753;49.440;11.126;2023-09-18T05:12:44;15.64;90.49
71096;DHT22;58753;49.440;11.126;2023-09-18T05:15:10;15.65;90.52
71096;DHT22;58753;49.440;11.126;2023-09-18T05:17:43;15.71;90.55
71096;DHT22;58753;49.440;11.126;2023-09-18T05:20:12;15.77;90.71
71096;DHT22;58753;49.440;11.126;2023-09-18T05:22:41;15.81;90.75
71096;DHT22;58753;49.440;11.126;2023-09-18T05:25:08;15.87;90.79
71096;DHT22;58753;49.440;11.126;2023-09-18T05:27:35;15.94;90.84
71096;DHT22;58753;49.440;11.126;2023-09-18T05:30:01;15.99;90.80
71096;DHT22;58753;49.440;11.126;2023-09-18T05:32:26;16.05;90.79
71096;DHT22;58753;49.440;11.126;2023-09-18T05:34:51;16.13;90.81
71096;DHT22;58753;49.440;11.126;2023-09-18T05:37:19;16.18;90.82
71096;DHT22;58753;49.440;11.126;2023-09-18T05:39:45;16.23;90.73
71096;DHT22;58753;49.440;11.126;2023-09-18T05:42:10;16.28;90.73
71096;DHT22;58753;49.440;11.126;2023-09-18T05:44:35;16.32;90.75
71096;DHT22;58753;49.440;11.126;2023-09-18T05:47:04;16.38;90.70
71096;DHT22;58753;49.440;11.126;2023-09-18T05:49:32;16.39;90.66
71096;DHT22;58753;49.440;11.126;2023-09-18T05:51:57;16.45;90.71
71096;DHT22;58753;49.440;11.126;2023-09-18T05:54:22;16.53;90.75
71096;DHT22;58753;49.440;11.126;2023-09-18T05:56:48;16.59;90.73
71096;DHT22;58753;49.440;11.126;2023-09-18T05:59:13;16.60;90.66
71096;DHT22;58753;49.440;11.126;2023-09-18T06:01:41;16.64;90.59
71096;DHT22;58753;49.440;11.126;2023-09-18T06:04:06;16.67;90.57
71096;DHT22;58753;49.440;11.126;2023-09-18T06:06:34;16.70;90.62
71096;DHT22;58753;49.440;11.126;2023-09-18T06:08:59;16.74;90.61
71096;DHT22;58753;49.440;11.126;2023-09-18T06:11:25;16.77;90.63
71096;DHT22;58753;49.440;11.126;2023-09-18T06:13:52;16.81;90.62
71096;DHT22;58753;49.440;11.126;2023-09-18T06:16:20;16.90;90.65
71096;DHT22;58753;49.440;11.126;2023-09-18T06:18:48;16.93;90.65
71096;DHT22;58753;49.440;11.126;2023-09-18T06:21:16;16.97;90.60
71096;DHT22;58753;49.440;11.126;2023-09-18T06:23:41;17.00;90.59
71096;DHT22;58753;49.440;11.126;2023-09-18T06:26:07;17.06;90.57
71096;DHT22;58753;49.440;11.126;2023-09-18T06:28:32;17.08;90.63
71096;DHT22;58753;49.440;11.126;2023-09-18T06:30:57;17.10;90.56
71096;DHT22;58753;49.440;11.126;2023-09-18T06:33:23;17.13;90.56
71096;DHT22;58753;49.440;11.126;2023-09-18T06:35:48;17.15;90.53
71096;DHT22;58753;49.440;11.126;2023-09-18T06:38:17;17.18;90.52
71096;DHT22;58753;49.440;11.126;2023-09-18T06:40:42;17.27;90.62
71096;DHT22;58753;49.440;11.126;2023-09-18T06:43:10;17.35;90.71
71096;DHT22;58753;49.440;11.126;2023-09-18T06:45:35;17.44;90.63
71096;DHT22;58753;49.440;11.126;2023-09-18T06:48:04;17.52;90.62
71096;DHT22;58753;49.440;11.126;2023-09-18T06:50:29;17.64;90.56
71096;DHT22;58753;49.440;11.126;2023-09-18T06:52:55;17.68;90.46
71096;DHT22;58753;49.440;11.126;2023-09-18T06:55:20;17.74;90.36
71096;DHT22;58753;49.440;11.126;2023-09-18T06:57:47;17.81;90.26
71096;DHT22;58753;49.440;11.126;2023-09-18T07:00:14;17.85;90.20
71096;DHT22;58753;49.440;11.126;2023-09-18T07:02:40;17.92;90.12
71096;DHT22;58753;49.440;11.126;2023-09-18T07:05:08;18.00;90.01
71096;DHT22;58753;49.440;11.126;2023-09-18T07:07:36;18.07;89.84
71096;DHT22;58753;49.440;11.126;2023-09-18T07:10:01;18.13;89.62
71096;DHT22;58753;49.440;11.126;2023-09-18T07:12:27;18.26;89.44
71096;DHT22;58753;49.440;11.126;2023-09-18T07:14:53;18.37;89.03
71096;DHT22;58753;49.440;11.126;2023-09-18T07:17:18;18.50;88.81
71096;DHT22;58753;49.440;11.126;2023-09-18T07:19:44;18.58;88.49
71096;DHT22;58753;49.440;11.126;2023-09-18T07:22:09;18.68;88.28
71096;DHT22;58753;49.440;11.126;2023-09-18T07:24:37;18.78;88.11
71096;DHT22;58753;49.440;11.126;2023-09-18T07:27:06;18.91;87.79
71096;DHT22;58753;49.440;11.126;2023-09-18T07:29:33;19.02;87.58
71096;DHT22;58753;49.440;11.126;2023-09-18T07:32:00;19.14;87.26
71096;DHT22;58753;49.440;11.126;2023-09-18T07:34:26;19.25;86.83
71096;DHT22;58753;49.440;11.126;2023-09-18T07:36:52;19.35;86.59
71096;DHT22;58753;49.440;11.126;2023-09-18T07:39:22;19.43;86.21
71096;DHT22;58753;49.440;11.126;2023-09-18T07:41:47;19.51;86.09
71096;DHT22;58753;49.440;11.126;2023-09-18T07:44:19;19.59;85.63
71096;DHT22;58753;49.440;11.126;2023-09-18T07:46:44;19.65;85.38
71096;DHT22;58753;49.440;11.126;2023-09-18T07:49:12;19.73;84.98
71096;DHT22;58753;49.440;11.126;2023-09-18T07:51:38;19.83;84.26
71096;DHT22;58753;49.440;11.126;2023-09-18T07:54:03;19.96;84.06
71096;DHT22;58753;49.440;11.126;2023-09-18T07:56:31;20.04;83.75
71096;DHT22;58753;49.440;11.126;2023-09-18T07:59:01;20.12;83.68
71096;DHT22;58753;49.440;11.126;2023-09-18T08:01:28;20.17;83.39
71096;DHT22;58753;49.440;11.126;2023-09-18T08:03:56;20.24;82.88
71096;DHT22;58753;49.440;11.126;2023-09-18T08:06:24;20.34;82.41
71096;DHT22;58753;49.440;11.126;2023-09-18T08:08:51;20.45;81.88
71096;DHT22;58753;49.440;11.126;2023-09-18T08:11:16;20.52;81.43
71096;DHT22;58753;49.440;11.126;2023-09-18T08:13:42;20.59;81.22
71096;DHT22;58753;49.440;11.126;2023-09-18T08:16:07;20.67;80.68
71096;DHT22;58753;49.440;11.126;2023-09-18T08:18:33;20.75;80.48
71096;DHT22;58753;49.440;11.126;2023-09-18T08:21:02;20.79;80.17
71096;DHT22;58753;49.440;11.126;2023-09-18T08:23:27;20.87;79.44
71096;DHT22;58753;49.440;11.126;2023-09-18T08:25:53;21.00;79.09
71096;DHT22;58753;49.440;11.126;2023-09-18T08:28:24;21.12;78.81
71096;DHT22;58753;49.440;11.126;2023-09-18T08:30:50;21.26;78.30
71096;DHT22;58753;49.440;11.126;2023-09-18T08:33:20;21.35;77.30
71096;DHT22;58753;49.440;11.126;2023-09-18T08:35:45;21.47;77.21
71096;DHT22;58753;49.440;11.126;2023-09-18T08:38:14;21.49;77.04
71096;DHT22;58753;49.440;11.126;2023-09-18T08:40:41;21.52;76.41
71096;DHT22;58753;49.440;11.126;2023-09-18T08:43:07;21.62;76.20
71096;DHT22;58753;49.440;11.126;2023-09-18T08:45:40;21.73;75.14
71096;DHT22;58753;49.440;11.126;2023-09-18T08:48:10;21.83;74.23
71096;DHT22;58753;49.440;11.126;2023-09-18T08:50:35;21.89;73.85
71096;DHT22;58753;49.440;11.126;2023-09-18T08:53:03;21.86;73.39
71096;DHT22;58753;49.440;11.126;2023-09-18T08:55:29;21.96;73.22
71096;DHT22;58753;49.440;11.126;2023-09-18T08:57:56;22.10;72.84
71096;DHT22;58753;49.440;11.126;2023-09-18T09:00:25;22.22;72.21
71096;DHT22;58753;49.440;11.126;2023-09-18T09:02:51;22.34;71.49
71096;DHT22;58753;49.440;11.126;2023-09-18T09:05:17;22.45;70.79
71096;DHT22;58753;49.440;11.126;2023-09-18T09:07:43;22.58;70.72
71096;DHT22;58753;49.440;11.126;2023-09-18T09:10:08;22.61;69.99
71096;DHT22;58753;49.440;11.126;2023-09-18T09:15:11;22.75;69.50
71096;DHT22;58753;49.440;11.126;2023-09-18T09:17:37;22.76;69.12
71096;DHT22;58753;49.440;11.126;2023-09-18T09:20:12;22.82;69.05
71096;DHT22;58753;49.440;11.126;2023-09-18T09:22:39;22.96;68.37
71096;DHT22;58753;49.440;11.126;2023-09-18T09:25:23;23.02;68.04
71096;DHT22;58753;49.440;11.126;2023-09-18T09:27:57;23.09;67.77
71096;DHT22;58753;49.440;11.126;2023-09-18T09:30:30;23.12;67.75
71096;DHT22;58753;49.440;11.126;2023-09-18T09:32:57;23.16;67.62
71096;DHT22;58753;49.440;11.126;2023-09-18T09:35:27;23.26;67.11
71096;DHT22;58753;49.440;11.126;2023-09-18T09:38:06;23.37;66.89
71096;DHT22;58753;49.440;11.126;2023-09-18T09:40:32;23.43;65.92
71096;DHT22;58753;49.440;11.126;2023-09-18T09:42:58;23.45;65.45
71096;DHT22;58753;49.440;11.126;2023-09-18T09:45:31;23.51;65.15
71096;DHT22;58753;49.440;11.126;2023-09-18T09:48:02;23.59;64.33
71096;DHT22;58753;49.440;11.126;2023-09-18T09:50:29;23.75;63.84
71096;DHT22;58753;49.440;11.126;2023-09-18T09:52:58;23.87;63.72
71096;DHT22;58753;49.440;11.126;2023-09-18T09:55:25;23.94;62.94
71096;DHT22;58753;49.440;11.126;2023-09-18T09:58:02;24.04;62.35
71096;DHT22;58753;49.440;11.126;2023-09-18T10:00:43;24.07;61.38
71096;DHT22;58753;49.440;11.126;2023-09-18T10:03:10;24.15;60.69
71096;DHT22;58753;49.440;11.126;2023-09-18T10:05:47;24.24;60.24
71096;DHT22;58753;49.440;11.126;2023-09-18T10:08:26;24.38;59.62
71096;DHT22;58753;49.440;11.126;2023-09-18T10:11:00;24.42;59.94
71096;DHT22;58753;49.440;11.126;2023-09-18T10:16:18;24.42;58.90
71096;DHT22;58753;49.440;11.126;2023-09-18T10:26:41;24.47;58.34
71096;DHT22;58753;49.440;11.126;2023-09-18T10:29:13;24.47;58.29
71096;DHT22;58753;49.440;11.126;2023-09-18T10:31:39;24.41;57.86
71096;DHT22;58753;49.440;11.126;2023-09-18T10:34:09;24.42;57.80
71096;DHT22;58753;49.440;11.126;2023-09-18T10:36:37;24.42;57.86
71096;DHT22;58753;49.440;11.126;2023-09-18T10:39:03;24.43;57.74
71096;DHT22;58753;49.440;11.126;2023-09-18T10:41:33;24.45;57.28
71096;DHT22;58753;49.440;11.126;2023-09-18T10:43:59;24.43;57.28
71096;DHT22;58753;49.440;11.126;2023-09-18T10:46:26;24.47;56.91
71096;DHT22;58753;49.440;11.126;2023-09-18T10:48:52;24.45;57.12
71096;DHT22;58753;49.440;11.126;2023-09-18T10:51:23;24.39;56.93
71096;DHT22;58753;49.440;11.126;2023-09-18T10:53:49;24.36;56.88
71096;DHT22;58753;49.440;11.126;2023-09-18T10:56:15;24.33;57.03
71096;DHT22;58753;49.440;11.126;2023-09-18T10:58:42;24.29;57.38
71096;DHT22;58753;49.440;11.126;2023-09-18T11:01:11;24.29;57.31
71096;DHT22;58753;49.440;11.126;2023-09-18T11:03:37;24.22;57.75
71096;DHT22;58753;49.440;11.126;2023-09-18T11:06:11;24.21;58.54
71096;DHT22;58753;49.440;11.126;2023-09-18T11:11:14;24.04;58.63
71096;DHT22;58753;49.440;11.126;2023-09-18T11:13:41;23.97;59.32
71096;DHT22;58753;49.440;11.126;2023-09-18T11:18:41;23.80;60.14
71096;DHT22;58753;49.440;11.126;2023-09-18T11:21:11;23.73;60.71
71096;DHT22;58753;49.440;11.126;2023-09-18T11:23:40;23.63;60.45
71096;DHT22;58753;49.440;11.126;2023-09-18T11:26:09;23.60;60.02
71096;DHT22;58753;49.440;11.126;2023-09-18T11:28:36;23.66;59.35
71096;DHT22;58753;49.440;11.126;2023-09-18T11:31:08;23.59;58.97
71096;DHT22;58753;49.440;11.126;2023-09-18T11:33:37;23.54;58.70
71096;DHT22;58753;49.440;11.126;2023-09-18T11:36:12;23.56;58.02
71096;DHT22;58753;49.440;11.126;2023-09-18T11:39:00;23.61;58.10
71096;DHT22;58753;49.440;11.126;2023-09-18T11:41:36;23.67;57.77
71096;DHT22;58753;49.440;11.126;2023-09-18T11:46:35;23.74;57.40
71096;DHT22;58753;49.440;11.126;2023-09-18T11:49:00;23.73;56.73
71096;DHT22;58753;49.440;11.126;2023-09-18T11:51:34;23.70;55.14
71096;DHT22;58753;49.440;11.126;2023-09-18T11:54:03;23.67;55.19
71096;DHT22;58753;49.440;11.126;2023-09-18T11:56:35;23.63;55.17
71096;DHT22;58753;49.440;11.126;2023-09-18T11:59:01;23.54;55.69
71096;DHT22;58753;49.440;11.126;2023-09-18T12:01:30;23.49;56.42
71096;DHT22;58753;49.440;11.126;2023-09-18T12:04:03;23.47;56.83
71096;DHT22;58753;49.440;11.126;2023-09-18T12:06:41;23.46;57.26
71096;DHT22;58753;49.440;11.126;2023-09-18T12:09:07;23.45;58.73
71096;DHT22;58753;49.440;11.126;2023-09-18T12:11:34;23.26;59.45
71096;DHT22;58753;49.440;11.126;2023-09-18T12:14:01;23.12;60.43
71096;DHT22;58753;49.440;11.126;2023-09-18T12:16:29;23.02;60.92
71096;DHT22;58753;49.440;11.126;2023-09-18T12:18:55;22.91;61.75
71096;DHT22;58753;49.440;11.126;2023-09-18T12:21:22;22.76;61.99
71096;DHT22;58753;49.440;11.126;2023-09-18T12:23:50;22.66;62.69
71096;DHT22;58753;49.440;11.126;2023-09-18T12:26:16;22.52;63.46
71096;DHT22;58753;49.440;11.126;2023-09-18T12:28:46;22.33;64.45
71096;DHT22;58753;49.440;11.126;2023-09-18T12:31:18;22.01;65.25
71096;DHT22;58753;49.440;11.126;2023-09-18T12:33:46;21.77;66.78
71096;DHT22;58753;49.440;11.126;2023-09-18T12:36:21;21.46;67.17
71096;DHT22;58753;49.440;11.126;2023-09-18T12:38:57;21.19;67.94
71096;DHT22;58753;49.440;11.126;2023-09-18T12:41:25;20.98;69.60
71096;DHT22;58753;49.440;11.126;2023-09-18T12:43:50;20.78;70.96
71096;DHT22;58753;49.440;11.126;2023-09-18T12:46:16;20.58;71.70
71096;DHT22;58753;49.440;11.126;2023-09-18T12:48:44;20.37;72.91
71096;DHT22;58753;49.440;11.126;2023-09-18T12:51:15;20.09;74.15
71096;DHT22;58753;49.440;11.126;2023-09-18T12:53:47;19.84;75.24
71096;DHT22;58753;49.440;11.126;2023-09-18T12:56:16;19.73;76.29
71096;DHT22;58753;49.440;11.126;2023-09-18T12:58:42;19.61;77.14
71096;DHT22;58753;49.440;11.126;2023-09-18T13:01:09;19.59;78.10
71096;DHT22;58753;49.440;11.126;2023-09-18T13:03:46;19.42;78.79
71096;DHT22;58753;49.440;11.126;2023-09-18T13:06:19;19.31;79.37
71096;DHT22;58753;49.440;11.126;2023-09-18T13:08:47;19.11;80.17
71096;DHT22;58753;49.440;11.126;2023-09-18T13:11:13;18.94;81.01
71096;DHT22;58753;49.440;11.126;2023-09-18T13:13:41;18.81;81.46
71096;DHT22;58753;49.440;11.126;2023-09-18T13:16:08;18.67;82.04
71096;DHT22;58753;49.440;11.126;2023-09-18T13:18:39;18.58;82.80
71096;DHT22;58753;49.440;11.126;2023-09-18T13:21:16;18.50;83.38
71096;DHT22;58753;49.440;11.126;2023-09-18T13:23:41;18.48;83.93
71096;DHT22;58753;49.440;11.126;2023-09-18T13:26:07;18.41;84.23
71096;DHT22;58753;49.440;11.126;2023-09-18T13:28:34;18.37;84.80
71096;DHT22;58753;49.440;11.126;2023-09-18T13:31:04;18.29;85.25
71096;DHT22;58753;49.440;11.126;2023-09-18T13:33:30;18.20;85.41
71096;DHT22;58753;49.440;11.126;2023-09-18T13:35:59;18.20;86.49
71096;DHT22;58753;49.440;11.126;2023-09-18T13:38:27;18.20;86.39
71096;DHT22;58753;49.440;11.126;2023-09-18T13:40:53;18.17;86.47
71096;DHT22;58753;49.440;11.126;2023-09-18T13:43:20;18.10;86.91
71096;DHT22;58753;49.440;11.126;2023-09-18T13:45:48;18.07;87.50
71096;DHT22;58753;49.440;11.126;2023-09-18T13:48:19;17.93;87.32
71096;DHT22;58753;49.440;11.126;2023-09-18T13:50:46;17.85;87.70
71096;DHT22;58753;49.440;11.126;2023-09-18T13:53:14;17.78;88.00
71096;DHT22;58753;49.440;11.126;2023-09-18T13:55:39;17.79;88.84
71096;DHT22;58753;49.440;11.126;2023-09-18T13:58:04;17.85;89.14
71096;DHT22;58753;49.440;11.126;2023-09-18T14:00:30;17.81;88.81
71096;DHT22;58753;49.440;11.126;2023-09-18T14:02:56;17.64;88.79
71096;DHT22;58753;49.440;11.126;2023-09-18T14:05:22;17.49;89.03
71096;DHT22;58753;49.440;11.126;2023-09-18T14:07:47;17.44;89.37
71096;DHT22;58753;49.440;11.126;2023-09-18T14:10:14;17.39;89.81
71096;DHT22;58753;49.440;11.126;2023-09-18T14:12:43;17.41;90.17
71096;DHT22;58753;49.440;11.126;2023-09-18T14:15:09;17.44;90.37
71096;DHT22;58753;49.440;11.126;2023-09-18T14:17:35;17.44;90.16
71096;DHT22;58753;49.440;11.126;2023-09-18T14:20:01;17.45;90.54
71096;DHT22;58753;49.440;11.126;2023-09-18T14:22:32;17.52;90.77
71096;DHT22;58753;49.440;11.126;2023-09-18T14:24:59;17.48;90.68
71096;DHT22;58753;49.440;11.126;2023-09-18T14:27:29;17.52;91.00
71096;DHT22;58753;49.440;11.126;2023-09-18T14:29:54;17.51;90.84
71096;DHT22;58753;49.440;11.126;2023-09-18T14:32:20;17.45;91.04
71096;DHT22;58753;49.440;11.126;2023-09-18T14:34:45;17.41;91.01
71096;DHT22;58753;49.440;11.126;2023-09-18T14:37:11;17.41;91.19
71096;DHT22;58753;49.440;11.126;2023-09-18T14:39:36;17.44;91.73
71096;DHT22;58753;49.440;11.126;2023-09-18T14:42:01;17.44;91.36
71096;DHT22;58753;49.440;11.126;2023-09-18T14:44:27;17.41;91.45
71096;DHT22;58753;49.440;11.126;2023-09-18T14:46:55;17.41;91.63
71096;DHT22;58753;49.440;11.126;2023-09-18T14:49:23;17.41;91.64
71096;DHT22;58753;49.440;11.126;2023-09-18T14:51:49;17.39;91.71
71096;DHT22;58753;49.440;11.126;2023-09-18T14:54:15;17.42;91.87
71096;DHT22;58753;49.440;11.126;2023-09-18T14:56:43;17.44;91.90
71096;DHT22;58753;49.440;11.126;2023-09-18T14:59:11;17.39;91.95
71096;DHT22;58753;49.440;11.126;2023-09-18T15:01:36;17.41;92.18
71096;DHT22;58753;49.440;11.126;2023-09-18T15:04:02;17.45;92.14
71096;DHT22;58753;49.440;11.126;2023-09-18T15:06:30;17.38;91.92
71096;DHT22;58753;49.440;11.126;2023-09-18T15:08:56;17.31;92.10
71096;DHT22;58753;49.440;11.126;2023-09-18T15:11:24;17.32;92.17
71096;DHT22;58753;49.440;11.126;2023-09-18T15:13:49;17.34;92.32
71096;DHT22;58753;49.440;11.126;2023-09-18T15:16:18;17.31;92.21
71096;DHT22;58753;49.440;11.126;2023-09-18T15:18:43;17.31;92.41
71096;DHT22;58753;49.440;11.126;2023-09-18T15:21:10;17.35;92.46
71096;DHT22;58753;49.440;11.126;2023-09-18T15:23:35;17.35;92.31
71096;DHT22;58753;49.440;11.126;2023-09-18T15:26:06;17.31;92.58
71096;DHT22;58753;49.440;11.126;2023-09-18T15:28:36;17.32;92.78
71096;DHT22;58753;49.440;11.126;2023-09-18T15:31:02;17.35;92.83
71096;DHT22;58753;49.440;11.126;2023-09-18T15:33:27;17.39;92.73
71096;DHT22;58753;49.440;11.126;2023-09-18T15:35:53;17.39;92.65
71096;DHT22;58753;49.440;11.126;2023-09-18T15:38:19;17.38;92.64